Elkwood, VA

4:37 PM EDT on September 02, 2015 (GMT -0400)
Culpeper Regional | | Change Station
CLOSE
Current Station
Airport
Location: Culpeper,
Elevation: 312 ft
Nearby Weather Stations

Elev 312 ft 38.53 °N, 77.86 °W | Updated 27 minutes ago

Clear
Clear
84 °F
Feels Like 88 °F
N
13
Wind Variable Wind from NW
Gusts 17 mph

Today
High -- | Low -- °F
--% Chance of Precip.
Yesterday
High -- | Low -- °F
Precip. -- in
6:41 AM 7:40 PM
Waning Gibbous, 77% visible
Pressure 29.99 in
Visibility 10.0 miles
Clouds Clear
Heat Index 88 °F
Dew Point 70 °F
Humidity 64%
Rainfall 0.00 in
Snow Depth Not available.
UV 5 out of 12
Pollen 9.40 out of 12
Air Quality Not available.
Flu Activity Not available.
METAR KCJR 022010Z AUTO 31011G15KT 10SM VCTS CLR 29/21 A2999 RMK AO2 LTG DSNT N AND W T02870212
Pressure 29.99 in
Visibility 10.0 miles
Clouds Clear
Heat Index 88 °F
Dew Point 70 °F
Humidity 64%
Rainfall 0.00 in
Snow Depth Not available.
UV 5 out of 12
Pollen 9.40 out of 12
Air Quality Not available.
Flu Activity Not available.
METAR KCJR 022010Z AUTO 31011G15KT 10SM VCTS CLR 29/21 A2999 RMK AO2 LTG DSNT N AND W T02870212
Nowcast | as of 3:56 PM EDT on September 2, 2015

a strong thunderstorm will affect south central Page... southwestern Rappahannock...north central Greene...west central Culpeper and Madison counties... At 356 PM EDT...a strong thunderstorm was near Big Meadows...or 10 miles northwest of Madison...moving east at 5 mph. Winds in excess of 40 mph and pea size hail are possible with this storm. Locations impacted include... Madison...Big Meadows...Nethers...Criglersville...Etlan...Syria... Banco...Brightwood...Slate Mills...Haywood...Pratts...Fletcher... Aylor...Graves Mill and Boston. Lat...Lon 3839 7843 3839 7845 3840 7848 3856 7845 3859 7841 3859 7812 3832 7819 time...Mot...loc 1956z 280deg 6kt 3849 7838

×

10-Day Weather Forecast

×

Almanac

Astronomy

Sep. 02, 2015 Rise Set
Actual Time
Civil Twilight
Nautical Twilight
Astronomical Twilight
Moon
Length of Visible Light
Length of Day
Tomorrow will be .
, % of the Moon is Illuminated

Today's Extremes

State Highs State Lows

Community

WunderPhotos

Upload Photos

1,851,806 photos uploaded!

WunderBlogs® & News

Nearby

Air Quality

  Air Quality AQ Index Pollutant
Not available.

Snow Depth

Station Depth Elevation

Earthquake Activity

City Distance Mag. Time & Date
Minimum magnitude displayed is 2.5.

Coastal Water Temperatures

Place Temperature

Stations

Nearby Weather Stations

Station Location Temp. Windchill Dew Point Humidity Wind Precip. Elev Updated Type